Time;durP1;ratioP1;P1;durP2;ratioP2;P2;SDS_P1;SDS_P2;PMS_P1;PMS_P2;Temp;Humidity;BMP_temperature;BMP_pressure;BME280_temperature;BME280_humidity;BME280_pressure;Samples;Min_cycle;Max_cycle;Signal;HPM_P1;HPM_P2
2022/11/05 00:10:40;;;;;;;2.03;1.25;;;15.70;68.20;;;;;;5013600;28;20046;-71
2022/11/05 00:18:36;;;;;;;2.50;1.13;;;15.60;68.10;;;;;;5013412;28;20046;-71
2022/11/05 00:21:04;;;;;;;2.35;1.23;;;15.60;68.20;;;;;;5012253;28;20056;-71
2022/11/05 00:26:35;;;;;;;2.67;1.35;;;15.60;68.20;;;;;;5045290;28;20050;-71
2022/11/05 00:29:02;;;;;;;2.95;1.27;;;15.60;68.20;;;;;;5013219;28;20073;-71
2022/11/05 00:31:28;;;;;;;2.22;1.25;;;15.60;68.20;;;;;;5012092;28;20060;-71
2022/11/05 00:33:55;;;;;;;2.03;1.40;;;15.60;68.20;;;;;;5012896;28;20076;-71
2022/11/05 00:36:23;;;;;;;2.75;1.30;;;15.60;68.20;;;;;;5012274;28;20056;-71
2022/11/05 00:38:50;;;;;;;2.40;1.52;;;15.60;68.20;;;;;;5012191;28;20074;-71
2022/11/05 00:41:16;;;;;;;5.75;1.85;;;15.60;68.20;;;;;;5011895;28;20061;-71
2022/11/05 00:46:27;;;;;;;3.95;1.50;;;15.60;68.10;;;;;;5064668;28;20077;-71
2022/11/05 00:51:39;;;;;;;4.15;1.60;;;15.50;68.10;;;;;;5064789;28;20049;-71
2022/11/05 00:54:06;;;;;;;1.70;1.20;;;15.50;68.10;;;;;;5032648;28;20414;-71
2022/11/05 00:56:33;;;;;;;2.38;1.40;;;15.50;68.10;;;;;;5024504;28;20053;-71
2022/11/05 00:59:00;;;;;;;1.98;1.20;;;15.50;68.10;;;;;;5011841;28;20050;-71
2022/11/05 01:01:26;;;;;;;2.85;1.38;;;15.50;68.10;;;;;;5011277;28;20050;-71
2022/11/05 01:03:53;;;;;;;2.55;1.38;;;15.50;68.10;;;;;;5011547;28;20554;-71
2022/11/05 01:06:20;;;;;;;2.40;1.30;;;15.50;68.10;;;;;;5010752;28;20078;-71
2022/11/05 01:08:48;;;;;;;2.55;1.10;;;15.50;68.10;;;;;;5011777;28;20127;-71
2022/11/05 01:11:31;;;;;;;2.50;1.30;;;15.50;68.10;;;;;;5018313;28;20051;-72
2022/11/05 01:13:58;;;;;;;1.85;1.20;;;15.40;68.10;;;;;;5031215;28;20071;-72
2022/11/05 01:16:25;;;;;;;1.70;1.13;;;15.40;68.10;;;;;;5031249;28;20052;-72
2022/11/05 01:18:52;;;;;;;3.28;1.50;;;15.50;68.20;;;;;;5031036;28;20063;-72
2022/11/05 01:21:18;;;;;;;2.13;1.30;;;15.40;68.10;;;;;;5032023;28;20053;-72
2022/11/05 01:23:45;;;;;;;3.35;1.40;;;15.40;68.10;;;;;;5031166;28;20054;-72
2022/11/05 01:26:13;;;;;;;2.58;1.20;;;15.50;68.10;;;;;;5015208;28;20111;-72
2022/11/05 01:28:40;;;;;;;1.83;1.30;;;15.40;68.10;;;;;;5011474;28;20064;-72
2022/11/05 01:31:06;;;;;;;2.40;1.30;;;15.40;68.10;;;;;;5010768;28;20064;-72
2022/11/05 01:33:33;;;;;;;3.67;1.35;;;15.40;68.10;;;;;;5012307;28;20073;-72
2022/11/05 01:36:00;;;;;;;2.33;1.45;;;15.40;68.10;;;;;;5011203;28;20049;-72
2022/11/05 01:38:26;;;;;;;1.50;1.20;;;15.40;68.00;;;;;;5011358;28;20079;-72
2022/11/05 01:40:53;;;;;;;3.42;1.23;;;15.40;68.10;;;;;;5025828;28;20057;-72
2022/11/05 01:43:22;;;;;;;1.77;1.23;;;15.40;68.00;;;;;;5030570;28;20064;-72
2022/11/05 01:45:50;;;;;;;2.35;1.30;;;15.40;68.00;;;;;;5030514;28;20053;-72
2022/11/05 01:48:17;;;;;;;1.70;1.10;;;15.40;68.00;;;;;;5030787;28;20056;-72
2022/11/05 01:50:46;;;;;;;1.73;1.25;;;15.40;68.00;;;;;;5030938;28;20422;-72
2022/11/05 01:53:16;;;;;;;1.42;1.20;;;15.40;68.00;;;;;;5028495;28;20054;-72
2022/11/05 01:55:44;;;;;;;1.88;1.33;;;15.30;67.90;;;;;;5012038;28;20054;-72
2022/11/05 01:58:12;;;;;;;2.28;1.30;;;15.40;68.00;;;;;;5012157;28;20419;-72
2022/11/05 02:00:41;;;;;;;1.63;1.20;;;15.30;68.00;;;;;;5027291;28;20058;-72
2022/11/05 02:03:07;;;;;;;4.03;1.45;;;15.30;67.90;;;;;;5027554;28;20064;-72
2022/11/05 02:05:34;;;;;;;1.65;1.20;;;15.30;68.50;;;;;;5011044;28;20484;-72
2022/11/05 02:08:01;;;;;;;1.55;1.25;;;15.30;68.00;;;;;;5014026;28;20060;-72
2022/11/05 02:10:27;;;;;;;2.45;1.20;;;15.30;68.00;;;;;;5031007;28;20136;-72
2022/11/05 02:12:54;;;;;;;2.85;1.27;;;15.30;68.00;;;;;;5030890;28;20388;-72
2022/11/05 02:15:24;;;;;;;2.20;1.30;;;15.30;68.00;;;;;;5030533;28;20060;-72
2022/11/05 02:18:09;;;;;;;1.55;1.05;;;15.30;68.00;;;;;;5032628;28;20051;-72
2022/11/05 02:20:38;;;;;;;2.97;1.50;;;15.30;67.90;;;;;;5035227;28;20049;-72
2022/11/05 02:23:38;;;;;;;1.67;1.10;;;15.30;68.00;;;;;;5021312;28;20045;-72
2022/11/05 02:26:33;;;;;;;2.00;1.23;;;15.30;67.90;;;;;;5031198;28;20054;-72
2022/11/05 02:29:30;;;;;;;2.97;1.27;;;15.30;68.00;;;;;;5015609;28;20052;-72
2022/11/05 02:32:00;;;;;;;2.95;1.30;;;15.30;68.00;;;;;;5031885;28;20388;-72
2022/11/05 02:34:28;;;;;;;2.25;1.30;;;15.30;68.10;;;;;;5034294;28;20136;-72
2022/11/05 02:36:58;;;;;;;1.90;1.20;;;15.20;68.00;;;;;;5035171;28;20410;-72
2022/11/05 02:39:30;;;;;;;1.80;1.20;;;15.20;68.00;;;;;;5034104;28;20398;-72
2022/11/05 02:42:01;;;;;;;1.90;1.20;;;15.20;68.00;;;;;;5033752;28;20080;-72
2022/11/05 02:44:32;;;;;;;2.38;1.30;;;14.00;67.40;;;;;;5034100;28;20506;-72
2022/11/05 02:47:04;;;;;;;1.63;1.00;;;15.20;68.00;;;;;;5022397;28;20056;-72
2022/11/05 02:49:36;;;;;;;2.22;1.52;;;15.20;67.90;;;;;;5047089;28;20060;-72
2022/11/05 02:52:05;;;;;;;1.45;1.08;;;15.20;68.00;;;;;;5015163;28;20048;-72
2022/11/05 02:54:33;;;;;;;1.73;1.10;;;15.20;68.00;;;;;;5015169;28;20050;-72
2022/11/05 02:56:59;;;;;;;1.92;1.10;;;15.20;68.00;;;;;;5030173;28;20125;-72
2022/11/05 02:59:26;;;;;;;1.95;1.20;;;15.20;68.00;;;;;;5015037;28;20053;-72
2022/11/05 03:01:53;;;;;;;1.48;1.00;;;15.20;68.00;;;;;;5025651;28;20061;-72
2022/11/05 03:04:21;;;;;;;1.52;1.10;;;15.20;68.00;;;;;;5033479;28;20053;-72
2022/11/05 03:07:00;;;;;;;1.20;1.00;;;15.20;68.00;;;;;;5033423;28;20063;-72
2022/11/05 03:09:40;;;;;;;1.92;1.10;;;15.20;68.00;;;;;;5067119;28;20391;-72
2022/11/05 03:12:12;;;;;;;1.48;1.00;;;15.20;68.00;;;;;;5033396;28;20060;-72
2022/11/05 03:14:41;;;;;;;1.80;1.10;;;15.20;68.00;;;;;;5030067;28;20483;-72
2022/11/05 03:17:11;;;;;;;2.28;1.10;;;15.20;68.50;;;;;;5035761;28;20050;-72
2022/11/05 03:19:41;;;;;;;2.17;1.20;;;15.20;68.00;;;;;;5046719;28;20518;-72
2022/11/05 03:22:09;;;;;;;1.77;1.10;;;15.20;68.00;;;;;;5030199;28;20057;-72
2022/11/05 03:24:38;;;;;;;1.42;1.10;;;13.30;67.00;;;;;;5046573;28;20045;-72
2022/11/05 03:27:06;;;;;;;1.90;1.35;;;15.20;68.00;;;;;;5013201;28;20054;-72
2022/11/05 03:29:34;;;;;;;2.05;1.15;;;15.20;68.00;;;;;;5012489;28;20061;-72
2022/11/05 03:32:01;;;;;;;1.27;1.00;;;15.10;67.90;;;;;;5044726;28;20492;-72
2022/11/05 03:34:31;;;;;;;1.38;1.10;;;15.20;68.00;;;;;;5013366;28;20060;-72
2022/11/05 03:36:59;;;;;;;2.17;1.20;;;15.20;68.00;;;;;;5029849;28;20049;-72
2022/11/05 03:39:28;;;;;;;1.30;1.10;;;15.20;67.90;;;;;;5046300;28;20491;-72
2022/11/05 03:41:55;;;;;;;2.03;1.25;;;15.20;67.90;;;;;;5014100;28;20103;-72
2022/11/05 03:44:24;;;;;;;2.97;1.13;;;15.20;67.90;;;;;;5013090;28;20140;-72
2022/11/05 03:46:51;;;;;;;2.05;1.23;;;15.20;67.90;;;;;;5046293;28;20058;-72
2022/11/05 03:49:21;;;;;;;1.35;1.10;;;15.20;67.90;;;;;;5029539;28;20144;-72
2022/11/05 03:51:50;;;;;;;1.13;0.95;;;15.10;67.90;;;;;;5029099;28;20578;-72
2022/11/05 03:54:18;;;;;;;1.65;1.10;;;15.10;67.80;;;;;;5029359;28;20406;-72
2022/11/05 03:56:46;;;;;;;2.10;1.10;;;15.20;67.90;;;;;;5029256;28;20056;-72
2022/11/05 03:59:12;;;;;;;1.45;1.15;;;15.20;67.90;;;;;;5029054;28;20058;-72
2022/11/05 04:01:40;;;;;;;2.20;1.10;;;15.20;67.90;;;;;;5012746;28;20060;-72
2022/11/05 04:04:07;;;;;;;1.73;1.10;;;15.20;67.90;;;;;;5029304;28;20145;-72
2022/11/05 04:14:47;;;;;;;2.10;1.10;;;15.10;67.80;;;;;;4977451;28;20058;-72
2022/11/05 04:17:13;;;;;;;1.23;1.00;;;15.20;67.90;;;;;;5013849;28;20093;-72
2022/11/05 04:25:11;;;;;;;1.70;1.08;;;15.10;67.80;;;;;;5012500;28;20077;-72
2022/11/05 04:27:37;;;;;;;2.55;1.02;;;15.10;67.80;;;;;;5045033;28;20056;-72
2022/11/05 04:30:20;;;;;;;2.72;1.15;;;15.10;67.80;;;;;;5031549;28;20049;-72
2022/11/05 04:33:03;;;;;;;2.40;1.30;;;15.10;67.80;;;;;;5032028;28;20075;-72
2022/11/05 04:35:31;;;;;;;1.40;1.02;;;15.10;67.80;;;;;;5031869;28;20063;-72
2022/11/05 04:37:58;;;;;;;2.08;1.20;;;15.10;67.80;;;;;;5031945;28;20059;-72
2022/11/05 04:40:26;;;;;;;1.55;1.10;;;15.10;67.80;;;;;;5031753;28;20053;-72
2022/11/05 04:42:54;;;;;;;1.35;0.90;;;15.10;67.80;;;;;;5020704;28;20060;-72
2022/11/05 04:45:20;;;;;;;1.77;1.00;;;15.10;67.70;;;;;;5035884;28;20574;-72
2022/11/05 04:47:47;;;;;;;2.30;1.00;;;15.10;67.70;;;;;;5062671;28;20055;-72
2022/11/05 04:50:14;;;;;;;1.38;1.10;;;15.10;67.70;;;;;;5031468;28;20064;-72
2022/11/05 04:52:41;;;;;;;1.25;1.00;;;15.10;68.70;;;;;;5031704;28;20624;-72
2022/11/05 04:55:07;;;;;;;1.70;1.10;;;15.10;67.70;;;;;;5031785;28;20057;-72
2022/11/05 04:57:36;;;;;;;1.20;1.10;;;15.10;67.70;;;;;;5031845;28;20402;-72
2022/11/05 05:00:04;;;;;;;2.03;1.23;;;15.20;67.70;;;;;;5027974;28;20132;-72
2022/11/05 05:02:31;;;;;;;2.33;1.17;;;15.10;67.70;;;;;;5012930;28;20048;-72
2022/11/05 05:04:58;;;;;;;2.20;1.15;;;15.10;67.70;;;;;;5011462;28;20049;-72
2022/11/05 05:07:24;;;;;;;2.72;1.20;;;15.10;67.70;;;;;;5044592;28;20045;-72
2022/11/05 05:09:51;;;;;;;1.67;1.10;;;15.20;67.70;;;;;;5044676;28;20058;-72
2022/11/05 05:12:18;;;;;;;1.92;1.00;;;15.10;67.70;;;;;;5044482;28;20100;-71
2022/11/05 05:14:47;;;;;;;1.60;1.10;;;15.10;67.70;;;;;;5031330;28;20053;-71
2022/11/05 05:17:13;;;;;;;1.00;0.90;;;15.20;67.70;;;;;;5032259;28;20049;-71
2022/11/05 05:22:27;;;;;;;1.52;1.00;;;15.20;67.70;;;;;;4997713;28;20077;-71
2022/11/05 05:24:54;;;;;;;2.22;1.10;;;15.20;67.70;;;;;;5030664;28;20053;-71
2022/11/05 05:27:21;;;;;;;1.67;1.10;;;15.20;67.70;;;;;;5020174;28;20049;-72
2022/11/05 05:29:49;;;;;;;2.30;1.27;;;15.10;67.60;;;;;;5011190;28;20492;-71
2022/11/05 05:32:16;;;;;;;1.70;1.25;;;15.20;67.70;;;;;;5011216;28;20136;-71
2022/11/05 05:34:43;;;;;;;1.48;1.10;;;15.20;67.60;;;;;;5011249;28;20057;-72
2022/11/05 05:37:09;;;;;;;1.85;1.20;;;15.10;67.60;;;;;;5011355;28;20080;-71
2022/11/05 05:39:36;;;;;;;1.00;0.90;;;15.20;67.60;;;;;;5011067;28;20133;-71
2022/11/05 05:42:03;;;;;;;1.33;1.00;;;15.20;67.60;;;;;;5021168;28;20063;-72
2022/11/05 05:44:29;;;;;;;1.00;0.85;;;15.20;67.60;;;;;;5030686;28;20513;-72
2022/11/05 05:46:57;;;;;;;2.17;1.23;;;15.20;67.60;;;;;;5030612;28;20056;-71
2022/11/05 05:49:24;;;;;;;1.90;1.08;;;15.20;67.60;;;;;;5030971;28;20064;-72
2022/11/05 05:51:51;;;;;;;1.20;1.08;;;15.20;67.60;;;;;;5033255;28;20168;-71
2022/11/05 05:54:17;;;;;;;2.75;1.10;;;15.20;67.50;;;;;;5037275;28;20053;-71
2022/11/05 05:56:44;;;;;;;1.02;0.93;;;15.20;67.50;;;;;;5019412;28;20084;-71
2022/11/05 05:59:11;;;;;;;1.10;1.00;;;15.20;67.50;;;;;;5017831;28;20056;-71
2022/11/05 06:01:38;;;;;;;2.15;1.25;;;15.20;67.50;;;;;;5017046;28;20064;-71
2022/11/05 06:04:06;;;;;;;1.50;1.00;;;15.20;67.50;;;;;;5017355;28;20168;-71
2022/11/05 06:06:32;;;;;;;1.05;0.90;;;15.20;67.50;;;;;;5033763;28;20060;-71
2022/11/05 06:08:59;;;;;;;3.63;1.45;;;15.20;67.50;;;;;;5017393;28;20202;-71
2022/11/05 06:11:26;;;;;;;1.75;1.08;;;15.20;67.50;;;;;;5035385;28;20053;-72
2022/11/05 06:13:52;;;;;;;1.55;0.90;;;15.20;67.40;;;;;;5037132;28;20183;-71
2022/11/05 06:16:19;;;;;;;1.23;1.10;;;15.20;67.40;;;;;;5037434;28;20065;-71
2022/11/05 06:18:46;;;;;;;1.17;0.98;;;15.20;67.40;;;;;;5036912;28;20054;-71
2022/11/05 06:21:15;;;;;;;1.25;1.00;;;15.20;67.40;;;;;;5036674;28;20059;-72
2022/11/05 06:23:42;;;;;;;1.52;0.98;;;15.20;67.40;;;;;;5032169;28;20600;-71
2022/11/05 06:26:10;;;;;;;1.50;1.00;;;15.20;67.40;;;;;;5033759;28;20479;-71
2022/11/05 06:28:37;;;;;;;1.73;1.10;;;15.20;67.40;;;;;;5034080;28;20136;-71
2022/11/05 06:31:04;;;;;;;2.08;1.20;;;15.20;67.40;;;;;;5017070;28;20054;-71
2022/11/05 06:33:31;;;;;;;2.42;1.02;;;15.20;67.40;;;;;;5017462;28;20060;-71
2022/11/05 06:35:58;;;;;;;1.95;1.10;;;15.20;67.30;;;;;;5033672;28;20650;-71
2022/11/05 06:38:28;;;;;;;1.40;1.00;;;15.20;67.40;;;;;;5017118;28;20457;-71
2022/11/05 06:40:55;;;;;;;1.52;1.05;;;15.20;67.30;;;;;;5018168;28;20053;-72
2022/11/05 06:43:21;;;;;;;1.15;1.00;;;15.30;67.30;;;;;;5016545;28;20069;-71
2022/11/05 06:45:48;;;;;;;1.02;0.88;;;15.30;67.40;;;;;;5017225;28;20058;-71
2022/11/05 06:48:15;;;;;;;1.80;1.30;;;15.30;67.30;;;;;;5017009;28;20056;-71
2022/11/05 06:50:43;;;;;;;2.28;1.10;;;15.30;67.40;;;;;;5033526;28;20060;-72
2022/11/05 06:53:10;;;;;;;1.73;1.00;;;15.30;67.30;;;;;;5017107;28;20061;-73
2022/11/05 06:55:38;;;;;;;1.67;1.10;;;15.30;67.30;;;;;;5018194;28;20538;-73
2022/11/05 06:58:05;;;;;;;1.08;0.95;;;15.30;67.30;;;;;;5017154;28;20057;-73
2022/11/05 07:00:31;;;;;;;1.15;1.02;;;15.30;67.30;;;;;;5033914;28;20136;-73
2022/11/05 07:03:03;;;;;;;1.95;1.10;;;15.30;67.30;;;;;;5016146;28;20055;-73
2022/11/05 07:05:30;;;;;;;1.75;1.00;;;15.30;67.30;;;;;;5029715;28;20141;-72
2022/11/05 07:07:57;;;;;;;1.70;1.10;;;15.30;67.30;;;;;;5055055;28;20054;-72
2022/11/05 07:10:24;;;;;;;2.00;1.10;;;15.20;67.20;;;;;;5043201;28;20216;-72
2022/11/05 07:12:55;;;;;;;1.98;1.15;;;15.30;69.00;;;;;;5042375;28;20071;-72
2022/11/05 07:15:21;;;;;;;2.33;1.00;;;15.30;67.30;;;;;;5041255;28;20059;-71
2022/11/05 07:17:48;;;;;;;1.67;1.00;;;15.20;67.30;;;;;;5053908;28;20479;-72
2022/11/05 07:20:15;;;;;;;1.58;1.00;;;15.20;67.30;;;;;;5033054;28;20691;-72
2022/11/05 07:22:42;;;;;;;2.35;1.10;;;15.20;67.30;;;;;;5026869;28;20049;-72
2022/11/05 07:25:09;;;;;;;1.92;0.95;;;15.20;67.80;;;;;;5024130;28;20459;-72
2022/11/05 07:27:39;;;;;;;1.05;0.90;;;15.20;67.30;;;;;;5019452;28;20050;-72
2022/11/05 07:30:09;;;;;;;1.10;0.80;;;15.20;67.20;;;;;;5021945;28;20525;-72
2022/11/05 07:32:39;;;;;;;1.25;1.00;;;15.20;67.30;;;;;;5054966;28;20482;-72
2022/11/05 07:35:06;;;;;;;1.35;1.00;;;15.20;67.30;;;;;;5040350;28;20402;-72
2022/11/05 07:37:33;;;;;;;2.13;1.10;;;15.20;67.30;;;;;;5043560;28;20478;-72
2022/11/05 07:40:00;;;;;;;1.58;1.20;;;15.20;67.30;;;;;;5039910;28;20054;-70
2022/11/05 07:42:26;;;;;;;1.45;1.10;;;15.20;67.30;;;;;;5022185;28;20053;-70
2022/11/05 07:44:53;;;;;;;1.58;1.05;;;15.20;67.30;;;;;;5043771;28;20403;-70
2022/11/05 07:47:21;;;;;;;1.30;0.95;;;15.20;67.30;;;;;;5035849;28;20037;-70
2022/11/05 07:49:48;;;;;;;1.58;1.00;;;15.20;67.20;;;;;;5033085;28;20075;-70
2022/11/05 07:52:15;;;;;;;2.22;1.20;;;15.20;67.30;;;;;;5034288;28;20475;-70
2022/11/05 07:54:41;;;;;;;1.10;1.00;;;15.30;67.30;;;;;;5021916;28;20038;-70
2022/11/05 07:57:08;;;;;;;1.48;1.00;;;15.20;67.30;;;;;;5033554;28;20048;-70
2022/11/05 07:59:35;;;;;;;1.35;1.00;;;15.30;67.30;;;;;;5033963;28;20438;-71
2022/11/05 08:02:01;;;;;;;1.30;0.95;;;15.30;67.30;;;;;;5032864;28;20041;-72
2022/11/05 08:04:29;;;;;;;2.35;1.13;;;15.30;67.30;;;;;;5032528;28;20049;-72
2022/11/05 08:06:56;;;;;;;1.45;1.10;;;15.30;67.20;;;;;;5037953;28;20422;-72
2022/11/05 08:09:23;;;;;;;2.15;1.52;;;15.30;67.20;;;;;;5028627;28;20053;-74
2022/11/05 08:11:49;;;;;;;1.35;1.00;;;15.40;67.30;;;;;;5012848;28;20563;-73
2022/11/05 08:14:16;;;;;;;1.20;1.10;;;15.40;67.30;;;;;;5012663;28;20060;-72
2022/11/05 08:16:43;;;;;;;2.75;1.10;;;15.40;67.30;;;;;;5012508;28;20137;-73
2022/11/05 08:19:10;;;;;;;1.80;1.10;;;15.40;67.20;;;;;;5022756;28;20406;-72
2022/11/05 08:21:38;;;;;;;2.50;1.15;;;15.40;67.30;;;;;;5029475;28;20057;-72
2022/11/05 08:24:05;;;;;;;1.20;0.90;;;15.40;67.20;;;;;;5039640;28;20416;-72
2022/11/05 08:26:31;;;;;;;2.70;1.10;;;15.40;67.20;;;;;;5041715;28;20053;-73
2022/11/05 08:28:59;;;;;;;3.80;1.15;;;15.40;67.20;;;;;;5041907;28;20053;-73
2022/11/05 08:31:25;;;;;;;1.80;1.40;;;15.40;67.20;;;;;;5045303;28;20054;-73
2022/11/05 08:33:52;;;;;;;3.15;1.10;;;15.40;67.20;;;;;;5011785;28;20479;-72
2022/11/05 08:36:19;;;;;;;1.33;1.00;;;15.40;67.20;;;;;;5012062;28;20060;-73
2022/11/05 08:38:47;;;;;;;1.95;0.90;;;15.40;67.20;;;;;;5012664;28;20054;-73
2022/11/05 08:41:13;;;;;;;1.95;1.10;;;15.40;67.20;;;;;;5012947;28;20050;-73
2022/11/05 08:43:40;;;;;;;1.67;1.10;;;15.40;67.20;;;;;;5045249;28;20144;-72
2022/11/05 08:46:07;;;;;;;2.38;1.13;;;15.40;67.20;;;;;;5044848;28;20133;-72
2022/11/05 08:48:34;;;;;;;2.25;1.23;;;15.40;67.20;;;;;;5045055;28;20049;-73
2022/11/05 08:51:01;;;;;;;1.33;1.08;;;15.40;67.20;;;;;;5053239;28;20059;-73
2022/11/05 08:53:28;;;;;;;2.47;0.98;;;15.40;67.20;;;;;;5060728;28;20045;-72
2022/11/05 08:55:59;;;;;;;1.88;1.30;;;15.40;67.20;;;;;;5028342;28;20133;-73
2022/11/05 08:58:26;;;;;;;1.33;1.08;;;15.50;67.20;;;;;;5021479;28;20104;-73
2022/11/05 09:00:52;;;;;;;2.08;1.10;;;15.40;67.20;;;;;;5064646;28;20064;-73
2022/11/05 09:03:19;;;;;;;3.45;1.10;;;15.40;67.20;;;;;;5064625;28;20063;-73
2022/11/05 09:05:46;;;;;;;1.65;1.05;;;15.40;67.10;;;;;;5063904;28;20529;-73
2022/11/05 09:08:13;;;;;;;2.70;1.00;;;15.40;67.20;;;;;;5030835;28;20049;-72
2022/11/05 09:10:40;;;;;;;1.63;1.10;;;15.50;67.20;;;;;;5031231;28;20057;-72
2022/11/05 09:13:08;;;;;;;1.80;1.10;;;15.50;67.20;;;;;;5031516;28;20053;-73
2022/11/05 09:15:35;;;;;;;1.55;1.02;;;15.50;67.70;;;;;;5031211;28;20057;-72
2022/11/05 09:18:02;;;;;;;1.88;1.33;;;15.50;67.20;;;;;;5031307;28;20053;-72
2022/11/05 09:20:28;;;;;;;1.65;1.05;;;15.50;67.20;;;;;;5033632;28;20056;-72
2022/11/05 09:22:55;;;;;;;1.20;1.00;;;15.40;69.60;;;;;;5029144;28;20129;-73
2022/11/05 09:25:22;;;;;;;1.58;1.15;;;15.40;67.10;;;;;;5011310;28;20170;-72
2022/11/05 09:27:49;;;;;;;3.90;1.40;;;15.50;67.20;;;;;;5010291;28;20503;-72
2022/11/05 09:30:17;;;;;;;1.65;1.10;;;15.50;67.20;;;;;;5011089;28;20078;-73
2022/11/05 09:32:43;;;;;;;1.20;1.10;;;15.50;67.20;;;;;;5027920;28;20045;-74
2022/11/05 09:35:10;;;;;;;1.92;1.10;;;15.50;67.10;;;;;;5030656;28;20067;-73
2022/11/05 09:37:37;;;;;;;2.40;1.20;;;15.50;67.10;;;;;;5037853;28;20047;-72
2022/11/05 09:40:04;;;;;;;2.08;0.95;;;15.50;67.10;;;;;;5050698;28;20063;-73
2022/11/05 09:42:33;;;;;;;0.85;0.85;;;15.50;67.10;;;;;;5036678;28;20057;-72
2022/11/05 09:45:01;;;;;;;2.35;1.20;;;15.50;67.10;;;;;;5030685;28;20065;-72
2022/11/05 09:47:30;;;;;;;2.15;1.27;;;15.50;67.10;;;;;;5030823;28;20049;-72
2022/11/05 09:49:57;;;;;;;1.83;1.10;;;15.50;67.10;;;;;;5031682;28;20056;-73
2022/11/05 09:52:25;;;;;;;1.85;1.10;;;15.50;67.10;;;;;;5030508;28;20053;-73
2022/11/05 09:54:53;;;;;;;1.27;1.00;;;15.50;67.20;;;;;;5046128;28;20067;-74
2022/11/05 09:57:21;;;;;;;2.40;1.00;;;15.50;67.20;;;;;;5051884;28;20520;-73
2022/11/05 09:59:50;;;;;;;1.40;1.10;;;15.50;67.70;;;;;;5050594;28;20136;-73
2022/11/05 10:02:18;;;;;;;1.30;0.88;;;15.50;67.20;;;;;;5022441;28;20240;-72
2022/11/05 10:04:47;;;;;;;1.17;0.90;;;15.50;67.10;;;;;;5036517;28;20120;-72
2022/11/05 10:07:15;;;;;;;1.08;0.88;;;15.50;67.10;;;;;;5050242;28;20482;-72
2022/11/05 10:09:45;;;;;;;2.13;1.10;;;15.50;67.10;;;;;;5043179;28;20060;-72
2022/11/05 10:12:13;;;;;;;1.27;1.00;;;15.50;67.10;;;;;;5010708;28;20062;-73
2022/11/05 10:14:41;;;;;;;1.60;1.10;;;15.50;67.10;;;;;;5010603;28;20053;-72
2022/11/05 10:17:09;;;;;;;2.35;1.10;;;15.50;67.10;;;;;;5011440;28;20054;-72
2022/11/05 10:19:39;;;;;;;1.20;0.98;;;15.60;67.20;;;;;;5014747;28;20128;-72
2022/11/05 10:22:12;;;;;;;3.25;1.00;;;15.60;67.20;;;;;;5012004;28;20056;-72
2022/11/05 10:24:40;;;;;;;1.58;1.00;;;15.60;67.10;;;;;;5027528;28;20141;-72
2022/11/05 10:27:07;;;;;;;1.92;1.13;;;15.50;67.10;;;;;;5027185;28;20054;-72
2022/11/05 10:29:34;;;;;;;1.30;1.00;;;15.50;67.10;;;;;;5010590;28;20157;-73
2022/11/05 10:32:04;;;;;;;1.90;1.30;;;15.60;67.20;;;;;;5010546;28;20062;-73
2022/11/05 10:34:32;;;;;;;3.20;1.00;;;15.50;67.10;;;;;;5026889;28;20058;-73
2022/11/05 10:36:59;;;;;;;2.05;1.00;;;15.60;67.20;;;;;;5027462;28;20053;-73
2022/11/05 10:39:28;;;;;;;2.45;1.10;;;15.60;67.20;;;;;;5046657;28;20133;-73
2022/11/05 10:42:02;;;;;;;2.30;1.00;;;15.60;67.20;;;;;;5033209;28;20490;-72
2022/11/05 10:44:33;;;;;;;2.43;1.20;;;15.60;67.10;;;;;;5033191;28;20053;-72
2022/11/05 10:47:11;;;;;;;1.85;1.10;;;15.60;67.20;;;;;;5062184;28;20396;-72
2022/11/05 10:49:44;;;;;;;1.27;0.90;;;15.60;67.20;;;;;;5055949;28;20049;-72
2022/11/05 10:52:20;;;;;;;1.92;1.17;;;15.60;67.20;;;;;;5041760;28;20063;-72
2022/11/05 10:54:49;;;;;;;1.65;1.00;;;15.60;67.20;;;;;;5030274;28;20509;-72
2022/11/05 10:57:33;;;;;;;1.80;1.00;;;15.60;67.20;;;;;;5033908;28;20041;-72
2022/11/05 11:00:21;;;;;;;2.50;1.10;;;15.60;67.10;;;;;;5039447;28;20486;-72
2022/11/05 11:02:48;;;;;;;1.27;1.10;;;15.60;67.10;;;;;;5042875;28;20049;-72
2022/11/05 11:05:19;;;;;;;1.52;1.00;;;15.60;67.10;;;;;;5043115;28;20092;-72
2022/11/05 11:07:59;;;;;;;3.50;1.00;;;15.70;67.20;;;;;;5043698;28;20505;-72
2022/11/05 11:10:27;;;;;;;1.95;1.10;;;15.70;67.10;;;;;;5041861;28;20131;-72
2022/11/05 11:12:54;;;;;;;1.25;1.00;;;15.70;67.10;;;;;;5043263;28;20514;-72
2022/11/05 11:15:27;;;;;;;1.27;0.85;;;15.70;67.10;;;;;;5044126;28;20490;-73
2022/11/05 11:17:54;;;;;;;2.00;1.10;;;15.70;67.10;;;;;;5043756;28;20060;-72
2022/11/05 11:20:27;;;;;;;0.93;0.82;;;15.70;67.10;;;;;;5020559;28;20391;-72
2022/11/05 11:23:02;;;;;;;2.25;1.30;;;15.70;67.10;;;;;;5043936;28;20067;-72
2022/11/05 11:25:30;;;;;;;;;;;15.70;67.10;;;;;;5044119;28;20128;-72
2022/11/05 11:28:01;;;;;;;1.13;0.85;;;15.60;67.10;;;;;;5040962;28;19921;-72
2022/11/05 11:30:28;;;;;;;1.58;1.00;;;15.60;67.20;;;;;;5043268;28;20056;-72
2022/11/05 11:32:56;;;;;;;2.20;0.98;;;15.60;67.10;;;;;;5041397;28;20119;-72
2022/11/05 11:35:24;;;;;;;1.00;0.90;;;15.60;67.10;;;;;;5047044;28;20063;-72
2022/11/05 11:37:52;;;;;;;1.10;1.00;;;15.60;67.00;;;;;;5054149;28;20055;-72
2022/11/05 11:40:20;;;;;;;1.67;1.10;;;15.60;67.00;;;;;;5034342;28;20069;-72
2022/11/05 11:42:49;;;;;;;1.85;1.00;;;15.60;67.10;;;;;;5032958;28;20060;-72
2022/11/05 11:45:17;;;;;;;1.23;0.93;;;15.60;67.10;;;;;;5066364;28;20049;-73
2022/11/05 11:47:44;;;;;;;1.05;0.93;;;15.60;67.10;;;;;;5032619;28;20057;-72
2022/11/05 11:50:35;;;;;;;1.40;1.00;;;15.60;67.10;;;;;;5049607;28;20049;-72
2022/11/05 11:53:29;;;;;;;1.42;1.02;;;15.60;67.00;;;;;;5032461;28;20053;-72
2022/11/05 11:55:58;;;;;;;1.88;0.98;;;15.60;67.10;;;;;;5011065;28;20502;-72
2022/11/05 11:58:36;;;;;;;0.80;0.80;;;15.60;67.30;;;;;;5026222;28;20056;-72
2022/11/05 12:01:06;;;;;;;3.08;0.90;;;15.60;67.20;;;;;;5013043;28;20136;-74
2022/11/05 12:03:34;;;;;;;1.30;0.90;;;15.60;67.20;;;;;;5013317;28;20062;-74
2022/11/05 12:06:03;;;;;;;1.85;1.00;;;15.60;67.20;;;;;;5012836;28;20133;-73
2022/11/05 12:08:46;;;;;;;1.33;0.93;;;15.60;67.20;;;;;;5043338;28;20513;-73
2022/11/05 12:11:15;;;;;;;1.67;1.10;;;15.60;67.20;;;;;;5038604;28;20063;-73
2022/11/05 12:14:03;;;;;;;2.42;1.30;;;15.60;67.90;;;;;;5038973;28;20056;-73
2022/11/05 12:17:06;;;;;;;2.55;1.10;;;15.60;67.40;;;;;;5054339;28;20115;-73
2022/11/05 12:19:55;;;;;;;1.52;1.08;;;15.60;67.40;;;;;;5013302;28;20054;-73
2022/11/05 12:22:26;;;;;;;1.60;1.05;;;15.60;67.40;;;;;;5002210;28;20066;-73
2022/11/05 12:25:10;;;;;;;1.45;1.10;;;15.60;67.40;;;;;;5016260;28;20143;-73
2022/11/05 12:27:46;;;;;;;1.85;1.10;;;15.60;67.40;;;;;;5031611;28;20136;-73
2022/11/05 12:30:15;;;;;;;1.42;1.10;;;15.60;67.40;;;;;;5051941;28;20079;-73
2022/11/05 12:33:08;;;;;;;2.22;1.10;;;15.70;67.40;;;;;;5041017;28;20059;-74
2022/11/05 12:35:40;;;;;;;1.95;1.10;;;15.70;67.40;;;;;;5039736;28;20422;-73
2022/11/05 12:38:11;;;;;;;2.33;0.90;;;15.70;67.40;;;;;;5039564;28;20041;-73
2022/11/05 12:40:46;;;;;;;2.05;1.15;;;15.70;67.40;;;;;;5032448;28;20144;-73
2022/11/05 12:43:15;;;;;;;;;;;15.70;67.40;;;;;;5031791;28;20132;-74
2022/11/05 12:45:49;;;;;;;2.15;1.00;;;15.60;67.40;;;;;;5031681;28;19920;-73
2022/11/05 12:48:27;;;;;;;5.35;1.00;;;15.60;67.50;;;;;;5032288;28;20136;-73
2022/11/05 12:50:58;;;;;;;1.63;0.95;;;15.60;67.40;;;;;;5030573;28;20132;-72
2022/11/05 12:53:34;;;;;;;1.00;0.90;;;15.60;67.40;;;;;;5031541;28;20053;-72
2022/11/05 12:56:03;;;;;;;1.65;0.90;;;15.60;67.40;;;;;;5031599;28;20057;-72
2022/11/05 12:58:31;;;;;;;1.42;1.00;;;15.60;67.40;;;;;;5031495;28;20510;-73
2022/11/05 13:01:02;;;;;;;2.28;1.00;;;15.60;67.40;;;;;;5030642;28;20462;-73
2022/11/05 13:03:34;;;;;;;1.98;1.02;;;15.60;67.40;;;;;;5031095;28;20059;-73
2022/11/05 13:06:04;;;;;;;1.63;1.10;;;15.60;67.40;;;;;;5031535;28;20142;-72
2022/11/05 13:08:33;;;;;;;3.92;0.90;;;15.70;67.50;;;;;;5031236;28;20055;-73
2022/11/05 13:11:03;;;;;;;1.77;0.88;;;15.70;67.50;;;;;;5031268;28;20053;-73
2022/11/05 13:13:31;;;;;;;1.20;0.93;;;15.60;67.50;;;;;;5031129;28;20060;-73
2022/11/05 13:16:02;;;;;;;1.70;0.90;;;15.60;67.50;;;;;;5032314;28;20501;-72
2022/11/05 13:18:31;;;;;;;2.25;1.20;;;15.60;67.50;;;;;;5031433;28;20132;-72
2022/11/05 13:20:58;;;;;;;1.48;1.08;;;15.70;67.50;;;;;;5030723;28;20136;-73
2022/11/05 13:23:28;;;;;;;1.33;0.82;;;15.60;67.50;;;;;;5031839;28;20406;-73
2022/11/05 13:25:58;;;;;;;1.67;0.93;;;15.60;67.50;;;;;;5031038;28;20059;-73
2022/11/05 13:28:32;;;;;;;2.17;1.00;;;15.60;67.50;;;;;;5031156;28;20141;-73
2022/11/05 13:31:01;;;;;;;1.42;1.00;;;15.70;67.50;;;;;;5030804;28;20519;-73
2022/11/05 13:33:29;;;;;;;2.03;1.00;;;15.70;67.60;;;;;;5031076;28;20115;-73
2022/11/05 13:41:26;;;;;;;0.75;0.75;;;15.70;67.50;;;;;;5031681;28;20045;-72
2022/11/05 13:44:05;;;;;;;1.88;1.00;;;15.70;67.50;;;;;;5030968;28;20054;-72